sensor_id;sensor_type;location;lat;lon;timestamp;pressure;altitude;pressure_sealevel;temperature;humidity
44697;BME280;57264;47.480;19.354;2023-05-08T17:58:15;99917.44;;;10.58;51.35
44697;BME280;57264;47.480;19.354;2023-05-08T18:00:41;99926.25;;;10.50;51.23
44697;BME280;57264;47.480;19.354;2023-05-08T18:03:06;99927.97;;;10.43;50.61
44697;BME280;57264;47.480;19.354;2023-05-08T18:05:32;99928.47;;;10.32;51.62
44697;BME280;57264;47.480;19.354;2023-05-08T18:07:57;99937.66;;;10.21;51.60
44697;BME280;57264;47.480;19.354;2023-05-08T18:10:23;99932.59;;;10.20;50.82
44697;BME280;57264;47.480;19.354;2023-05-08T18:12:49;99934.59;;;10.18;51.21
44697;BME280;57264;47.480;19.354;2023-05-08T18:15:15;99941.31;;;10.06;51.96
44697;BME280;57264;47.480;19.354;2023-05-08T18:17:40;99942.56;;;9.95;52.51
44697;BME280;57264;47.480;19.354;2023-05-08T18:20:06;99947.59;;;9.90;52.65
44697;BME280;57264;47.480;19.354;2023-05-08T18:22:33;99956.97;;;9.84;52.39
44697;BME280;57264;47.480;19.354;2023-05-08T18:24:59;99956.00;;;9.71;52.83
44697;BME280;57264;47.480;19.354;2023-05-08T18:27:25;99956.00;;;9.71;52.02
44697;BME280;57264;47.480;19.354;2023-05-08T18:29:51;99964.06;;;9.69;52.23
44697;BME280;57264;47.480;19.354;2023-05-08T18:32:17;99962.16;;;9.63;52.69
44697;BME280;57264;47.480;19.354;2023-05-08T18:34:42;99964.97;;;9.62;52.28
44697;BME280;57264;47.480;19.354;2023-05-08T18:37:08;99969.09;;;9.56;52.15
44697;BME280;57264;47.480;19.354;2023-05-08T18:39:34;99969.75;;;9.58;51.92
44697;BME280;57264;47.480;19.354;2023-05-08T18:41:59;99983.56;;;9.52;51.99
44697;BME280;57264;47.480;19.354;2023-05-08T18:44:25;99986.38;;;9.51;51.78
44697;BME280;57264;47.480;19.354;2023-05-08T18:46:51;99986.28;;;9.44;52.08
44697;BME280;57264;47.480;19.354;2023-05-08T18:49:16;99986.66;;;9.41;52.29
44697;BME280;57264;47.480;19.354;2023-05-08T18:51:42;99990.16;;;9.33;52.98
44697;BME280;57264;47.480;19.354;2023-05-08T18:54:07;99995.66;;;9.24;52.93
44697;BME280;57264;47.480;19.354;2023-05-08T18:56:33;99999.38;;;9.29;52.59
44697;BME280;57264;47.480;19.354;2023-05-08T18:58:59;100000.13;;;9.15;53.26
44697;BME280;57264;47.480;19.354;2023-05-08T19:01:25;100005.13;;;9.10;53.35
44697;BME280;57264;47.480;19.354;2023-05-08T19:03:51;100010.22;;;9.04;53.94
44697;BME280;57264;47.480;19.354;2023-05-08T19:06:18;100017.47;;;9.02;53.73
44697;BME280;57264;47.480;19.354;2023-05-08T19:08:44;100016.19;;;8.98;53.99
44697;BME280;57264;47.480;19.354;2023-05-08T19:11:10;100021.84;;;8.86;54.69
44697;BME280;57264;47.480;19.354;2023-05-08T19:13:36;100019.75;;;8.82;54.62
44697;BME280;57264;47.480;19.354;2023-05-08T19:16:02;100019.66;;;8.67;55.60
44697;BME280;57264;47.480;19.354;2023-05-08T19:18:28;100024.63;;;8.62;55.52
44697;BME280;57264;47.480;19.354;2023-05-08T19:20:54;100023.34;;;8.58;55.42
44697;BME280;57264;47.480;19.354;2023-05-08T19:23:20;100020.06;;;8.56;56.11
44697;BME280;57264;47.480;19.354;2023-05-08T19:25:46;100020.63;;;8.43;56.02
44697;BME280;57264;47.480;19.354;2023-05-08T19:28:11;100025.25;;;8.41;56.62
44697;BME280;57264;47.480;19.354;2023-05-08T19:30:37;100028.31;;;8.45;56.02
44697;BME280;57264;47.480;19.354;2023-05-08T19:33:02;100025.59;;;8.38;56.58
44697;BME280;57264;47.480;19.354;2023-05-08T19:35:28;100022.47;;;8.35;56.61
44697;BME280;57264;47.480;19.354;2023-05-08T19:37:54;100021.69;;;8.34;57.13
44697;BME280;57264;47.480;19.354;2023-05-08T19:40:19;100029.22;;;8.29;57.23
44697;BME280;57264;47.480;19.354;2023-05-08T19:42:45;100016.63;;;8.33;57.15
44697;BME280;57264;47.480;19.354;2023-05-08T19:45:11;100016.28;;;8.28;56.94
44697;BME280;57264;47.480;19.354;2023-05-08T19:47:37;100017.91;;;8.37;56.95
44697;BME280;57264;47.480;19.354;2023-05-08T19:50:03;100009.75;;;8.32;56.77
44697;BME280;57264;47.480;19.354;2023-05-08T19:52:30;100017.25;;;8.27;56.87
44697;BME280;57264;47.480;19.354;2023-05-08T19:54:56;100018.28;;;8.26;56.79
44697;BME280;57264;47.480;19.354;2023-05-08T19:57:22;100029.06;;;8.23;56.71
44697;BME280;57264;47.480;19.354;2023-05-08T19:59:47;100023.19;;;8.21;56.45
44697;BME280;57264;47.480;19.354;2023-05-08T20:02:13;100019.31;;;8.09;57.37
44697;BME280;57264;47.480;19.354;2023-05-08T20:04:38;100017.38;;;8.02;57.64
44697;BME280;57264;47.480;19.354;2023-05-08T20:07:04;100019.38;;;7.92;57.80
44697;BME280;57264;47.480;19.354;2023-05-08T20:09:30;100026.06;;;7.95;57.74
44697;BME280;57264;47.480;19.354;2023-05-08T20:11:55;100019.72;;;7.89;58.09
44697;BME280;57264;47.480;19.354;2023-05-08T20:14:21;100022.03;;;7.84;57.73
44697;BME280;57264;47.480;19.354;2023-05-08T20:16:47;100026.31;;;7.77;58.60
44697;BME280;57264;47.480;19.354;2023-05-08T20:19:12;100022.66;;;7.86;57.46
44697;BME280;57264;47.480;19.354;2023-05-08T20:21:38;100027.25;;;7.84;57.77
44697;BME280;57264;47.480;19.354;2023-05-08T20:24:04;100026.06;;;7.95;57.05
44697;BME280;57264;47.480;19.354;2023-05-08T20:26:29;100027.38;;;7.91;57.28
44697;BME280;57264;47.480;19.354;2023-05-08T20:28:56;100031.97;;;7.89;57.08
44697;BME280;57264;47.480;19.354;2023-05-08T20:31:22;100032.34;;;7.86;57.25
44697;BME280;57264;47.480;19.354;2023-05-08T20:33:49;100031.19;;;7.80;57.87
44697;BME280;57264;47.480;19.354;2023-05-08T20:36:15;100026.25;;;7.93;56.94
44697;BME280;57264;47.480;19.354;2023-05-08T20:38:40;100028.56;;;7.88;57.47
44697;BME280;57264;47.480;19.354;2023-05-08T20:41:06;100033.94;;;7.87;57.69
44697;BME280;57264;47.480;19.354;2023-05-08T20:43:32;100022.97;;;7.91;56.89
44697;BME280;57264;47.480;19.354;2023-05-08T20:45:57;100031.47;;;7.93;57.19
44697;BME280;57264;47.480;19.354;2023-05-08T20:48:23;100034.91;;;7.94;56.64
44697;BME280;57264;47.480;19.354;2023-05-08T20:50:49;100020.84;;;7.95;56.33
44697;BME280;57264;47.480;19.354;2023-05-08T20:53:14;100024.97;;;7.89;56.97
44697;BME280;57264;47.480;19.354;2023-05-08T20:55:40;100023.66;;;7.85;57.20
44697;BME280;57264;47.480;19.354;2023-05-08T20:58:06;100022.53;;;7.80;57.08
44697;BME280;57264;47.480;19.354;2023-05-08T21:00:33;100023.72;;;7.69;57.67
44697;BME280;57264;47.480;19.354;2023-05-08T21:02:59;100024.34;;;7.71;57.15
44697;BME280;57264;47.480;19.354;2023-05-08T21:05:25;100025.19;;;7.64;57.48
44697;BME280;57264;47.480;19.354;2023-05-08T21:07:51;100022.75;;;7.62;57.39
44697;BME280;57264;47.480;19.354;2023-05-08T21:10:20;100027.19;;;7.53;58.42
44697;BME280;57264;47.480;19.354;2023-05-08T21:12:45;100022.94;;;7.52;58.27
44697;BME280;57264;47.480;19.354;2023-05-08T21:15:11;100020.16;;;7.54;58.39
44697;BME280;57264;47.480;19.354;2023-05-08T21:17:36;100021.31;;;7.51;58.46
44697;BME280;57264;47.480;19.354;2023-05-08T21:20:02;100019.88;;;7.41;58.63
44697;BME280;57264;47.480;19.354;2023-05-08T21:22:28;100021.16;;;7.37;59.08
44697;BME280;57264;47.480;19.354;2023-05-08T21:24:53;100024.28;;;7.32;59.00
44697;BME280;57264;47.480;19.354;2023-05-08T21:27:19;100020.50;;;7.35;58.87
44697;BME280;57264;47.480;19.354;2023-05-08T21:29:45;100020.03;;;7.31;58.44
44697;BME280;57264;47.480;19.354;2023-05-08T21:32:10;100014.66;;;7.25;58.95
44697;BME280;57264;47.480;19.354;2023-05-08T21:34:36;100012.53;;;7.20;59.64
44697;BME280;57264;47.480;19.354;2023-05-08T21:37:01;100010.75;;;7.13;59.19
44697;BME280;57264;47.480;19.354;2023-05-08T21:39:27;100013.03;;;7.07;59.55
44697;BME280;57264;47.480;19.354;2023-05-08T21:41:52;100012.69;;;7.02;60.39
44697;BME280;57264;47.480;19.354;2023-05-08T21:44:18;100010.56;;;7.14;60.08
44697;BME280;57264;47.480;19.354;2023-05-08T21:46:43;100005.06;;;7.09;59.43
44697;BME280;57264;47.480;19.354;2023-05-08T21:49:09;99999.84;;;7.01;60.18
44697;BME280;57264;47.480;19.354;2023-05-08T21:51:35;100014.19;;;6.97;60.10
44697;BME280;57264;47.480;19.354;2023-05-08T21:54:00;99997.72;;;6.96;60.60
44697;BME280;57264;47.480;19.354;2023-05-08T21:56:26;100002.59;;;6.83;60.58
44697;BME280;57264;47.480;19.354;2023-05-08T21:58:51;100001.63;;;6.84;60.04
44697;BME280;57264;47.480;19.354;2023-05-08T22:01:17;100010.75;;;6.88;60.63
44697;BME280;57264;47.480;19.354;2023-05-08T22:03:43;100003.56;;;6.90;60.23
44697;BME280;57264;47.480;19.354;2023-05-08T22:06:08;100013.53;;;6.87;60.50
44697;BME280;57264;47.480;19.354;2023-05-08T22:08:34;100005.03;;;6.77;60.63
44697;BME280;57264;47.480;19.354;2023-05-08T22:11:00;100004.56;;;6.73;61.49
44697;BME280;57264;47.480;19.354;2023-05-08T22:13:25;100000.78;;;6.68;61.71
44697;BME280;57264;47.480;19.354;2023-05-08T22:15:51;99999.97;;;6.67;61.25
44697;BME280;57264;47.480;19.354;2023-05-08T22:18:16;100002.75;;;6.66;61.30
44697;BME280;57264;47.480;19.354;2023-05-08T22:20:42;99999.34;;;6.65;61.77
44697;BME280;57264;47.480;19.354;2023-05-08T22:23:07;99999.16;;;6.67;61.48
44697;BME280;57264;47.480;19.354;2023-05-08T22:25:33;99997.03;;;6.70;61.79
44697;BME280;57264;47.480;19.354;2023-05-08T22:27:58;99994.75;;;6.59;62.01
44697;BME280;57264;47.480;19.354;2023-05-08T22:30:24;100003.06;;;6.54;62.26
44697;BME280;57264;47.480;19.354;2023-05-08T22:32:55;99990.34;;;6.51;62.09
44697;BME280;57264;47.480;19.354;2023-05-08T22:35:23;99982.50;;;6.43;62.31
44697;BME280;57264;47.480;19.354;2023-05-08T22:37:49;99977.97;;;6.45;62.64
44697;BME280;57264;47.480;19.354;2023-05-08T22:40:15;99974.34;;;6.38;62.75
44697;BME280;57264;47.480;19.354;2023-05-08T22:42:41;99972.72;;;6.37;63.33
44697;BME280;57264;47.480;19.354;2023-05-08T22:45:07;99973.84;;;6.35;63.17
44697;BME280;57264;47.480;19.354;2023-05-08T22:47:33;99972.06;;;6.35;63.15
44697;BME280;57264;47.480;19.354;2023-05-08T22:49:59;99976.47;;;6.43;62.12
44697;BME280;57264;47.480;19.354;2023-05-08T22:52:24;99983.44;;;6.34;63.03
44697;BME280;57264;47.480;19.354;2023-05-08T22:54:50;99970.94;;;6.30;62.65
44697;BME280;57264;47.480;19.354;2023-05-08T22:57:15;99969.78;;;6.32;62.74
44697;BME280;57264;47.480;19.354;2023-05-08T22:59:41;99977.44;;;6.34;63.01
44697;BME280;57264;47.480;19.354;2023-05-08T23:02:06;99974.16;;;6.32;63.24
44697;BME280;57264;47.480;19.354;2023-05-08T23:04:32;99980.06;;;6.34;63.35
44697;BME280;57264;47.480;19.354;2023-05-08T23:06:57;99973.53;;;6.38;63.08
44697;BME280;57264;47.480;19.354;2023-05-08T23:09:23;99974.34;;;6.38;62.39
44697;BME280;57264;47.480;19.354;2023-05-08T23:11:48;99985.28;;;6.34;63.21
44697;BME280;57264;47.480;19.354;2023-05-08T23:14:14;99977.59;;;6.32;63.08
44697;BME280;57264;47.480;19.354;2023-05-08T23:16:40;99985.06;;;6.27;63.36
44697;BME280;57264;47.480;19.354;2023-05-08T23:19:05;99978.06;;;6.20;63.55
44697;BME280;57264;47.480;19.354;2023-05-08T23:21:32;99979.19;;;6.17;64.06
44697;BME280;57264;47.480;19.354;2023-05-08T23:23:57;99991.53;;;6.07;64.58
44697;BME280;57264;47.480;19.354;2023-05-08T23:26:23;99988.09;;;6.06;64.07
44697;BME280;57264;47.480;19.354;2023-05-08T23:28:49;99980.63;;;6.11;63.71
44697;BME280;57264;47.480;19.354;2023-05-08T23:31:16;99984.03;;;6.04;64.41
44697;BME280;57264;47.480;19.354;2023-05-08T23:33:41;99980.13;;;6.00;64.73
44697;BME280;57264;47.480;19.354;2023-05-08T23:36:07;99976.66;;;5.91;64.95
44697;BME280;57264;47.480;19.354;2023-05-08T23:38:32;99973.03;;;5.84;65.72
44697;BME280;57264;47.480;19.354;2023-05-08T23:40:58;99971.03;;;5.78;66.27
44697;BME280;57264;47.480;19.354;2023-05-08T23:43:23;99968.41;;;5.70;67.68
44697;BME280;57264;47.480;19.354;2023-05-08T23:45:49;99971.31;;;5.67;67.06
44697;BME280;57264;47.480;19.354;2023-05-08T23:48:15;99966.25;;;5.57;67.34
44697;BME280;57264;47.480;19.354;2023-05-08T23:50:40;99969.31;;;5.53;67.32
44697;BME280;57264;47.480;19.354;2023-05-08T23:53:06;99964.72;;;5.47;67.76
44697;BME280;57264;47.480;19.354;2023-05-08T23:55:34;99966.31;;;5.40;67.94
44697;BME280;57264;47.480;19.354;2023-05-08T23:57:59;99967.56;;;5.10;70.62
